createdAt,value
2023-04-18T00:14:38.593Z,13.22
2023-04-18T00:29:41.107Z,12.83
2023-04-18T00:44:42.958Z,12.98
2023-04-18T00:59:46.665Z,12.70
2023-04-18T01:14:48.520Z,12.63
2023-04-18T01:29:50.420Z,12.41
2023-04-18T01:44:52.416Z,12.32
2023-04-18T01:59:54.560Z,12.25
2023-04-18T02:14:56.376Z,11.77
2023-04-18T02:29:58.323Z,11.83
2023-04-18T02:45:00.156Z,11.74
2023-04-18T03:00:02.075Z,11.48
2023-04-18T03:15:04.132Z,11.47
2023-04-18T03:30:06.770Z,11.41
2023-04-18T03:45:09.131Z,11.11
2023-04-18T04:00:12.740Z,11.26
2023-04-18T04:15:14.644Z,11.36
2023-04-18T04:30:16.585Z,11.48
2023-04-18T04:45:19.544Z,11.94
2023-04-18T05:00:21.891Z,12.26
2023-04-18T05:15:24.566Z,12.99
2023-04-18T05:30:26.988Z,12.98
2023-04-18T05:45:28.832Z,13.75
2023-04-18T06:00:31.013Z,14.03
2023-04-18T06:15:32.918Z,14.28
2023-04-18T06:30:34.916Z,15.47
2023-04-18T06:45:36.835Z,15.45
2023-04-18T07:00:38.664Z,15.94
2023-04-18T07:15:41.079Z,16.00
2023-04-18T07:30:43.052Z,16.89
2023-04-18T07:45:44.890Z,17.87
2023-04-18T08:00:46.809Z,17.81
2023-04-18T08:15:48.870Z,17.89
2023-04-18T08:30:52.192Z,18.98
2023-04-18T08:46:01.282Z,18.60
2023-04-18T09:01:03.397Z,20.18
2023-04-18T09:16:08.986Z,20.64
2023-04-18T09:31:13.610Z,20.65
2023-04-18T09:46:17.825Z,21.07
2023-04-18T10:01:20.225Z,21.64
2023-04-18T10:16:22.655Z,21.64
2023-04-18T10:31:27.233Z,21.59
2023-04-18T10:46:32.425Z,22.74
2023-04-18T11:01:37.571Z,23.21
2023-04-18T11:16:40.231Z,23.11
2023-04-18T11:31:57.742Z,23.80
2023-04-18T11:47:00.264Z,21.86
2023-04-18T12:02:15.702Z,20.11
2023-04-18T12:17:18.869Z,19.24
2023-04-18T12:32:22.336Z,19.05
2023-04-18T12:47:24.421Z,19.12
2023-04-18T13:02:29.394Z,19.03
2023-04-18T13:17:31.564Z,19.12
2023-04-18T13:32:33.771Z,19.17
2023-04-18T13:47:35.995Z,19.27
2023-04-18T14:02:37.922Z,19.34
2023-04-18T14:17:39.955Z,19.30
2023-04-18T14:32:41.918Z,19.25
2023-04-18T14:47:44.745Z,19.15
2023-04-18T15:02:46.924Z,18.93
2023-04-18T15:17:51.758Z,18.79
2023-04-18T15:32:54.277Z,18.68
2023-04-18T15:47:56.270Z,18.50
2023-04-18T16:02:58.357Z,18.34
2023-04-18T16:18:02.457Z,18.01
2023-04-18T16:33:04.631Z,17.76
2023-04-18T16:48:06.542Z,17.53
2023-04-18T17:03:10.097Z,17.30
2023-04-18T17:18:12.218Z,17.20
2023-04-18T17:33:14.196Z,17.06
2023-04-18T17:48:16.497Z,16.74
2023-04-18T18:03:20.423Z,16.54
2023-04-18T18:18:23.378Z,16.47
2023-04-18T18:33:25.502Z,16.25
2023-04-18T18:48:28.465Z,16.10
2023-04-18T19:03:30.679Z,15.91
2023-04-18T19:18:32.703Z,15.76
2023-04-18T19:33:34.740Z,15.80
2023-04-18T19:48:36.649Z,15.74
2023-04-18T20:03:39.768Z,15.59
2023-04-18T20:18:42.421Z,15.39
2023-04-18T20:33:44.345Z,15.17
2023-04-18T20:48:46.356Z,15.03
2023-04-18T21:03:48.512Z,14.89
2023-04-18T21:18:50.395Z,14.93
2023-04-18T21:33:53.871Z,14.84
2023-04-18T21:48:55.767Z,14.73
2023-04-18T22:03:57.724Z,14.78
2023-04-18T22:19:01.282Z,14.84
2023-04-18T22:34:03.224Z,14.84
2023-04-18T22:49:05.674Z,14.75
2023-04-18T23:04:07.650Z,14.62
2023-04-18T23:19:09.775Z,14.47
2023-04-18T23:34:11.707Z,14.37
2023-04-18T23:49:13.938Z,14.40
